Latest Weather Observations for Willis Island

IDQ60801

Issued at 11:32 pm EST Friday 20 January 2017 (issued every 30 minutes, with the page automatically refreshed every 10 minutes)

About weather observations | Map of weather stations | Latest weather observations for QLD | Other Formats
Station Details ID: 200283 Name: WILLIS ISLAND Lat: -16.29 Lon: 149.97 Height: 9.29 m
Data from the previous 72 hours. | See also: Recent months at Willis Island
Date/Time
EST
Temp
°C
App
Temp
°C
Dew
Point
°C
Rel
Hum
%
Delta-T
°C
Wind Press
QNH
hPa
Press
MSL
hPa
Rain since
9am
mm
Dir  Spd
km/h
Gust
km/h
Spd
kts
Gust
kts
20/11:30pm 27.8 31.4 22.3 72 3.7 SSE 7 9 4 5 1008.2 1008.1 0.0
20/11:00pm 27.9 31.2 22.6 73 3.6 SSE 9 13 5 7 1008.4 1008.3 0.0
20/10:30pm 28.0 30.9 22.4 71 3.8 SSE 11 15 6 8 1008.5 1008.4 0.0
20/10:00pm 28.0 31.5 22.9 74 3.5 S 9 13 5 7 1008.7 1008.6 0.0
20/09:30pm 27.8 31.0 23.1 75 3.2 SSE 11 15 6 8 1008.5 1008.4 0.0
20/09:00pm 28.1 31.6 22.8 73 3.6 SSE 9 13 5 7 1008.4 1008.3 0.0
20/08:30pm 27.7 31.3 23.0 75 3.2 SE 9 13 5 7 1008.3 1008.2 0.0
20/08:00pm 27.9 31.4 22.9 74 3.4 SSE 9 13 5 7 1008.2 1008.1 0.0
20/07:30pm 28.1 31.2 22.8 73 3.6 S 11 13 6 7 1008.0 1007.9 0.0
20/07:00pm 28.2 30.6 22.9 73 3.6 S 15 19 8 10 1007.6 1007.5 0.0
20/06:30pm 28.2 31.2 24.0 78 2.9 S 15 19 8 10 1007.5 1007.4 0.0
20/06:00pm 27.5 29.5 24.0 81 2.4 SSW 20 26 11 14 1007.3 1007.2 0.0
20/05:30pm 29.2 33.1 24.2 74 3.5 S 11 17 6 9 1007.0 1006.9 0.0
20/05:00pm 29.4 32.5 23.6 71 4.0 S 13 17 7 9 1006.9 1006.8 0.0
20/04:30pm 30.4 32.2 22.5 62 5.4 SSW 17 20 9 11 1006.7 1006.6 0.0
20/04:00pm 30.4 32.7 22.8 64 5.2 SSW 15 17 8 9 1006.6 1006.5 0.0
20/03:30pm 30.3 31.9 22.2 62 5.5 SSW 17 20 9 11 1006.8 1006.7 0.0
20/03:00pm 30.8 32.7 22.1 59 5.9 WSW 15 19 8 10 1006.9 1006.8 0.0
20/02:30pm 31.2 33.2 22.2 58 6.1 WSW 15 17 8 9 1007.2 1007.1 0.0
20/02:00pm 31.1 33.5 23.0 62 5.6 WSW 15 19 8 10 1007.2 1007.1 0.0
20/01:30pm 30.9 33.5 22.7 61 5.6 SW 13 17 7 9 1007.5 1007.4 0.0
20/01:00pm 30.6 33.0 22.9 63 5.3 WSW 15 20 8 11 1007.9 1007.8 0.0
20/12:30pm 31.4 33.8 23.0 61 5.8 W 15 17 8 9 1008.2 1008.1 0.0
20/12:00pm 31.4 33.7 22.8 60 5.9 W 15 17 8 9 1008.5 1008.4 0.0
20/11:30am 31.7 34.0 22.8 59 6.1 W 15 19 8 10 1009.0 1008.9 0.0
20/11:00am 31.1 33.4 22.8 61 5.7 W 15 17 8 9 1009.2 1009.1 0.0
20/10:30am 30.7 33.3 22.7 62 5.5 WSW 13 17 7 9 1009.2 1009.1 0.0
20/10:00am 30.9 34.1 23.0 62 5.4 W 11 15 6 8 1009.4 1009.3 0.0
20/09:30am 30.6 33.3 22.9 63 5.3 WSW 13 15 7 8 1009.4 1009.3 0.0
20/09:00am 30.2 33.9 23.2 66 4.8 SSW 9 11 5 6 1009.2 1009.1 0.0
20/08:30am 29.7 33.2 22.8 66 4.7 SSW 9 11 5 6 1009.2 1009.1 0.0
20/08:00am 28.5 32.5 22.8 71 3.9 S 6 11 3 6 1008.9 1008.8 0.0
20/07:30am 28.9 32.8 22.9 70 4.1 SSE 7 9 4 5 1008.6 1008.5 0.0
20/07:00am 28.5 32.2 23.3 73 3.6 WSW 9 13 5 7 1008.5 1008.4 0.0
20/06:30am 27.9 31.6 23.2 75 3.2 SW 9 11 5 6 1008.3 1008.2 0.0
20/06:00am 27.6 31.7 23.2 77 3.0 WSW 7 11 4 6 1007.8 1007.7 0.0
20/05:30am 27.4 31.8 23.8 81 2.5 WSW 7 9 4 5 1007.4 1007.3 0.0
20/05:00am 27.5 31.4 23.6 79 2.7 S 9 9 5 5 1006.9 1006.8 0.0
20/04:30am 27.5 31.9 23.4 78 2.8 S 6 7 3 4 1006.8 1006.7 0.0
20/04:00am 27.5 31.4 23.6 79 2.7 SSW 9 11 5 6 1006.6 1006.5 0.0
20/03:30am 27.5 31.2 23.3 78 2.9 SW 9 11 5 6 1006.7 1006.6 0.0
20/03:00am 27.7 30.8 23.5 78 2.9 SW 13 15 7 8 1006.7 1006.6 0.0
20/02:30am 27.7 31.0 23.9 80 2.6 SW 13 17 7 9 1006.8 1006.7 0.0
20/02:00am 27.9 33.1 22.9 74 3.4 CALM 0 0 0 0 1007.0 1006.9 0.0
20/01:30am 28.1 31.3 22.3 70 3.9 ENE 9 11 5 6 1007.3 1007.2 0.0
20/01:00am 27.8 33.3 23.4 77 3.0 CALM 0 0 0 0 1007.5 1007.4 0.0
20/12:30am 28.0 32.2 23.2 75 3.3 E 6 7 3 4 1007.8 1007.7 0.0
20/12:00am 28.0 32.1 23.3 75 3.2 ENE 7 9 4 5 1008.1 1008.0 0.0
 
Date/Time
EST
Temp
°C
App
Temp
°C
Dew
Point
°C
Rel
Hum
%
Delta-T
°C
Wind Press
QNH
hPa
Press
MSL
hPa
Rain since
9am
mm
Dir  Spd
km/h
Gust
km/h
Spd
kts
Gust
kts
19/11:30pm 28.1 32.4 23.7 77 3.0 ENE 7 11 4 6 1008.3 1008.2 0.0
19/11:00pm 28.2 31.5 23.9 77 3.0 E 13 15 7 8 1008.5 1008.4 0.0
19/10:30pm 28.2 32.4 23.4 75 3.3 ESE 7 11 4 6 1008.7 1008.6 0.0
19/10:00pm 28.2 31.8 23.1 74 3.5 ESE 9 13 5 7 1008.7 1008.6 0.0
19/09:30pm 28.2 31.3 22.9 73 3.6 ESE 11 13 6 7 1008.5 1008.4 0.0
19/09:00pm 28.3 31.4 22.9 72 3.7 SE 11 15 6 8 1008.2 1008.1 0.0
19/08:30pm 28.5 31.5 23.3 73 3.6 ESE 13 17 7 9 1008.1 1008.0 0.0
19/08:00pm 28.6 31.6 23.4 73 3.6 ESE 13 15 7 8 1008.1 1008.0 0.0
19/07:30pm 28.4 31.5 22.8 71 3.8 SE 11 15 6 8 1007.8 1007.7 0.0
19/07:00pm 28.4 30.9 22.5 70 4.0 SE 13 15 7 8 1007.6 1007.5 0.0
19/06:30pm 29.0 31.7 22.9 69 4.2 SSE 13 17 7 9 1007.5 1007.4 0.0
19/06:00pm 29.6 31.9 22.1 64 5.1 SE 13 17 7 9 1007.4 1007.3 0.0
19/05:30pm 29.9 32.2 22.1 63 5.3 SE 13 20 7 11 1007.2 1007.1 0.0
19/05:00pm 30.6 32.5 22.1 60 5.8 SE 15 17 8 9 1007.0 1006.9 0.0
19/04:30pm 31.0 33.1 22.5 60 5.8 SSE 15 20 8 11 1006.8 1006.7 0.0
19/04:00pm 31.1 33.4 22.8 61 5.7 SE 15 20 8 11 1006.8 1006.7 0.0
19/03:30pm 31.5 33.9 22.9 60 5.9 SSE 15 17 8 9 1007.0 1006.9 0.0
19/03:00pm 30.7 33.3 22.7 62 5.5 SE 13 17 7 9 1007.2 1007.1 0.0
19/02:30pm 30.9 33.6 22.9 62 5.5 SSE 13 15 7 8 1007.5 1007.4 0.0
19/02:00pm 31.2 33.8 22.7 60 5.8 SSE 13 19 7 10 1008.0 1007.9 0.0
19/01:30pm 31.0 34.3 23.2 63 5.4 SSE 11 13 6 7 1008.3 1008.2 0.0
19/01:00pm 31.0 34.1 22.8 61 5.6 SSE 11 13 6 7 1008.7 1008.6 0.0
19/12:30pm 30.9 34.3 22.7 61 5.6 SSE 9 13 5 7 1008.9 1008.8 0.0
19/12:00pm 30.9 34.0 22.9 62 5.5 SSE 11 13 6 7 1009.3 1009.2 0.0
19/11:30am 30.8 34.3 22.9 62 5.4 S 9 11 5 6 1009.6 1009.5 0.0
19/11:00am 30.7 33.9 23.1 64 5.2 S 11 13 6 7 1010.0 1009.9 0.0
19/10:30am 31.0 34.2 23.0 62 5.5 SSE 11 15 6 8 1010.2 1010.1 0.0
19/10:00am 30.8 34.3 22.8 62 5.5 SE 9 13 5 7 1010.5 1010.4 0.0
19/09:30am 30.1 33.4 22.5 63 5.2 SSE 9 13 5 7 1010.6 1010.5 0.0
19/09:00am 30.5 34.0 22.8 63 5.3 SSE 9 11 5 6 1010.6 1010.5 0.0
19/08:30am 30.0 33.2 23.0 66 4.8 SSE 11 15 6 8 1010.5 1010.4 0.0
19/08:00am 29.6 32.7 22.9 67 4.6 SE 11 13 6 7 1010.4 1010.3 0.0
19/07:30am 29.4 32.5 22.8 67 4.5 SSE 11 15 6 8 1010.4 1010.3 0.0
19/07:00am 28.7 32.4 23.2 72 3.8 SSE 9 11 5 6 1010.3 1010.2 0.0
19/06:30am 28.4 31.7 22.5 70 4.0 SSE 9 13 5 7 1010.1 1010.0 0.0
19/06:00am 27.4 30.9 22.2 73 3.5 SSE 7 11 4 6 1009.7 1009.6 0.0
19/05:30am 27.2 30.4 22.3 74 3.3 SSE 9 11 5 6 1009.6 1009.5 0.0
19/05:00am 27.6 30.3 22.1 72 3.7 S 11 13 6 7 1009.3 1009.2 0.0
19/04:30am 27.3 30.0 22.1 73 3.5 SSE 11 13 6 7 1008.9 1008.8 0.0
19/04:00am 27.3 29.8 21.8 72 3.7 SSE 11 15 6 8 1008.7 1008.6 0.0
19/03:30am 27.5 30.6 22.8 75 3.2 SSE 11 13 6 7 1008.8 1008.7 0.0
19/03:00am 27.6 30.2 22.6 74 3.4 SSE 13 15 7 8 1008.8 1008.7 0.0
19/02:30am 27.7 30.9 22.4 73 3.6 SSE 9 13 5 7 1008.9 1008.8 0.0
19/02:00am 27.5 30.7 22.3 73 3.5 SSE 9 13 5 7 1009.1 1009.0 0.0
19/01:30am 27.8 30.6 22.3 72 3.7 S 11 13 6 7 1009.2 1009.1 0.0
19/01:00am 27.7 31.0 22.5 73 3.5 SSE 9 13 5 7 1009.4 1009.3 0.0
19/12:30am 27.8 31.1 22.5 73 3.6 S 9 11 5 6 1009.8 1009.7 0.0
19/12:00am 27.8 31.4 23.0 75 3.3 SE 9 11 5 6 1010.1 1010.0 0.0
 
Date/Time
EST
Temp
°C
App
Temp
°C
Dew
Point
°C
Rel
Hum
%
Delta-T
°C
Wind Press
QNH
hPa
Press
MSL
hPa
Rain since
9am
mm
Dir  Spd
km/h
Gust
km/h
Spd
kts
Gust
kts
18/11:30pm 27.9 31.8 22.9 74 3.4 SSE 7 11 4 6 1010.5 1010.4 0.0
18/11:00pm 28.1 31.8 22.5 71 3.8 SSE 7 9 4 5 1010.7 1010.6 0.0
18/10:30pm 28.2 31.1 22.4 71 3.9 SSE 11 13 6 7 1010.9 1010.8 0.0
18/10:00pm 28.0 31.8 22.7 73 3.6 SSE 7 9 4 5 1010.9 1010.8 0.0
18/09:30pm 28.3 31.4 22.1 69 4.2 S 9 11 5 6 1010.9 1010.8 0.0
18/09:00pm 28.1 31.6 22.2 70 4.0 SSE 7 11 4 6 1010.6 1010.5 0.0
18/08:30pm 28.3 31.4 22.2 69 4.1 S 9 13 5 7 1010.4 1010.3 0.0
18/08:00pm 28.4 31.2 22.3 69 4.1 SSW 11 13 6 7 1010.1 1010.0 0.0
18/07:30pm 28.3 31.0 22.2 69 4.1 SSE 11 15 6 8 1010.0 1009.9 0.0
18/07:00pm 28.6 30.8 22.6 70 4.1 S 15 17 8 9 1009.7 1009.6 0.0
18/06:30pm 28.9 31.2 22.1 66 4.6 S 13 17 7 9 1009.6 1009.5 0.0
18/06:00pm 29.4 32.3 22.5 66 4.7 SSE 11 15 6 8 1009.3 1009.2 0.0
18/05:30pm 30.2 33.3 22.1 62 5.5 SSE 9 11 5 6 1009.3 1009.2 0.0
18/05:00pm 30.2 33.4 22.3 62 5.4 S 9 13 5 7 1009.1 1009.0 0.0
18/04:30pm 30.3 32.6 22.7 64 5.2 S 15 17 8 9 1009.0 1008.9 0.0
18/04:00pm 30.5 32.0 21.3 58 6.2 S 15 17 8 9 1009.1 1009.0 0.0
18/03:30pm 30.8 32.7 22.8 62 5.5 S 17 20 9 11 1009.3 1009.2 0.0
18/03:00pm 30.8 33.0 21.1 56 6.5 S 11 13 6 7 1009.6 1009.5 0.0
18/02:30pm 30.6 33.5 21.7 59 6.0 SSE 9 13 5 7 1010.1 1010.0 0.0
18/02:00pm 30.9 33.9 21.9 58 6.1 SE 9 13 5 7 1010.4 1010.3 0.0
18/01:30pm 31.2 33.8 21.9 57 6.3 S 11 15 6 8 1010.7 1010.6 0.0
18/01:00pm 30.9 33.6 22.2 59 5.9 SSE 11 15 6 8 1011.0 1010.9 0.0
18/12:30pm 30.9 33.9 22.7 61 5.6 SSE 11 15 6 8 1011.3 1011.2 0.0
18/12:00pm 31.2 34.6 22.7 60 5.8 SE 9 13 5 7 1011.5 1011.4 0.0
18/11:30am 31.4 34.2 22.3 58 6.2 SE 11 13 6 7 1011.9 1011.8 0.0
18/11:00am 31.0 33.4 22.2 59 6.0 SE 13 15 7 8 1012.1 1012.0 0.0
18/10:30am 30.7 33.3 22.0 59 5.9 SE 11 15 6 8 1012.2 1012.1 0.0
18/10:00am 31.1 33.4 22.1 58 6.1 SE 13 15 7 8 1012.4 1012.3 0.0
18/09:30am 30.9 33.3 23.0 62 5.4 SSE 15 17 8 9 1012.6 1012.5 0.0
18/09:00am 31.1 33.6 23.1 62 5.5 SE 15 19 8 10 1012.5 1012.4 24.4
18/08:30am 30.5 33.0 23.2 65 5.0 SE 15 17 8 9 1012.6 1012.5 24.4
18/08:00am 30.1 32.0 22.8 65 5.0 SE 17 19 9 10 1012.4 1012.3 24.4
18/07:30am 29.7 31.7 23.0 67 4.6 SE 17 20 9 11 1012.3 1012.2 24.4
18/07:00am 29.2 30.9 23.1 69 4.2 SE 19 22 10 12 1012.0 1011.9 24.4
18/06:30am 28.6 30.0 22.9 71 3.9 SE 20 24 11 13 1011.7 1011.6 24.4
18/06:00am 28.0 29.7 23.0 74 3.4 ESE 19 22 10 12 1011.3 1011.2 24.4
18/05:30am 27.9 29.4 23.1 75 3.3 SE 20 22 11 12 1010.7 1010.6 24.4
18/05:00am 27.7 29.2 23.0 75 3.2 ESE 20 26 11 14 1010.3 1010.2 24.4
18/04:30am 27.8 28.6 22.5 73 3.6 ESE 22 26 12 14 1010.0 1009.9 24.4
18/04:00am 27.8 28.6 22.5 73 3.6 SE 22 26 12 14 1009.9 1009.8 24.4
18/03:30am 27.8 28.2 22.5 73 3.6 SE 24 28 13 15 1009.7 1009.6 24.4
18/03:00am 27.8 28.3 22.6 73 3.5 SE 24 30 13 16 1009.9 1009.8 24.4
18/02:30am 27.8 28.9 23.6 78 2.9 SE 24 30 13 16 1010.1 1010.0 24.4
18/02:00am 27.8 28.8 22.8 74 3.4 SE 22 28 12 15 1010.4 1010.3 24.4
18/01:30am 27.8 28.6 23.1 75 3.2 SE 24 28 13 15 1010.7 1010.6 24.4
18/01:00am 27.9 28.7 23.2 75 3.2 SE 24 28 13 15 1011.1 1011.0 24.4
18/12:30am 28.0 29.4 23.5 76 3.1 SE 22 24 12 13 1011.5 1011.4 24.4
18/12:00am 28.1 29.3 23.9 78 2.9 SE 24 26 13 14 1011.8 1011.7 24.4

Other Formats:

Comma delimited format used in spreadsheet applications
http://www.bom.gov.au/fwo/IDQ60801/IDQ60801.94299.axf

JavaScript Object Notation format (JSON) in row-major order
http://www.bom.gov.au/fwo/IDQ60801/IDQ60801.94299.json